createdAt,value
2023-05-25T00:02:27.038Z,14.63
2023-05-25T00:08:29.841Z,11.02
2023-05-25T00:14:31.709Z,10.20
2023-05-25T00:20:33.508Z,12.23
2023-05-25T00:26:36.144Z,11.77
2023-05-25T00:32:38.168Z,10.18
2023-05-25T00:38:40.010Z,9.38
2023-05-25T00:44:42.653Z,13.23
2023-05-25T00:50:45.796Z,12.55
2023-05-25T00:56:57.537Z,13.15
2023-05-25T01:03:01.075Z,12.93
2023-05-25T01:09:05.575Z,12.63
2023-05-25T01:15:09.181Z,18.73
2023-05-25T01:21:37.932Z,10.00
2023-05-25T01:28:00.191Z,13.93
2023-05-25T01:34:02.715Z,14.93
2023-05-25T01:40:08.574Z,15.63
2023-05-25T01:46:36.995Z,10.45
2023-05-25T01:52:44.289Z,11.93
2023-05-25T01:58:48.436Z,7.05
2023-05-25T02:04:50.858Z,12.18
2023-05-25T02:10:52.763Z,7.57
2023-05-25T02:16:54.571Z,11.10
2023-05-25T02:22:56.408Z,13.63
2023-05-25T02:28:58.242Z,11.30
2023-05-25T02:35:00.069Z,9.73
2023-05-25T02:41:02.185Z,10.32
2023-05-25T02:47:04.169Z,17.58
2023-05-25T02:53:06.262Z,16.10
2023-05-25T02:59:08.327Z,13.60
2023-05-25T03:05:11.363Z,10.40
2023-05-25T03:11:13.260Z,13.95
2023-05-25T03:17:15.186Z,13.85
2023-05-25T03:23:17.078Z,12.05
2023-05-25T03:29:18.867Z,9.30
2023-05-25T03:35:20.693Z,12.05
2023-05-25T03:41:22.665Z,12.95
2023-05-25T03:47:24.557Z,8.65
2023-05-25T03:53:26.473Z,13.30
2023-05-25T03:59:28.273Z,12.68
2023-05-25T04:05:30.185Z,18.67
2023-05-25T04:11:32.048Z,18.20
2023-05-25T04:17:35.394Z,14.25
2023-05-25T04:23:38.669Z,19.30
2023-05-25T04:29:41.702Z,16.88
2023-05-25T04:35:44.056Z,18.45
2023-05-25T04:41:48.376Z,13.98
2023-05-25T04:47:50.167Z,15.70
2023-05-25T04:53:52.132Z,13.23
2023-05-25T04:59:54.177Z,16.13
2023-05-25T05:05:56.976Z,14.85
2023-05-25T05:11:58.761Z,30.38
2023-05-25T05:18:00.696Z,23.35
2023-05-25T05:24:02.542Z,10.93
2023-05-25T05:30:04.816Z,15.40
2023-05-25T05:36:06.789Z,20.35
2023-05-25T05:42:09.588Z,16.20
2023-05-25T05:48:11.540Z,18.77
2023-05-25T05:54:13.348Z,17.52
2023-05-25T06:00:16.294Z,20.63
2023-05-25T06:06:18.393Z,19.80
2023-05-25T06:12:20.279Z,18.25
2023-05-25T06:18:22.132Z,16.02
2023-05-25T06:24:24.011Z,11.02
2023-05-25T06:30:25.913Z,15.18
2023-05-25T06:36:27.775Z,15.25
2023-05-25T06:42:29.664Z,14.15
2023-05-25T06:48:31.664Z,17.70
2023-05-25T06:54:33.524Z,19.67
2023-05-25T07:00:35.295Z,22.08
2023-05-25T07:06:37.302Z,14.88
2023-05-25T07:12:39.358Z,16.35
2023-05-25T07:18:42.197Z,20.40
2023-05-25T07:24:44.074Z,20.67
2023-05-25T07:30:46.079Z,17.63
2023-05-25T07:36:48.062Z,16.77
2023-05-25T07:42:49.905Z,17.58
2023-05-25T07:48:52.162Z,19.13
2023-05-25T07:54:54.056Z,14.80
2023-05-25T08:00:56.392Z,20.45
2023-05-25T08:06:58.260Z,15.95
2023-05-25T08:13:00.166Z,18.58
2023-05-25T08:19:02.040Z,11.77
2023-05-25T08:25:05.230Z,14.88
2023-05-25T08:31:08.593Z,16.33
2023-05-25T08:37:10.618Z,19.30
2023-05-25T08:43:12.616Z,14.40
2023-05-25T08:49:15.680Z,16.83
2023-05-25T08:55:19.769Z,15.35
2023-05-25T09:01:23.810Z,14.23
2023-05-25T09:07:26.941Z,15.45
2023-05-25T09:13:29.213Z,17.98
2023-05-25T09:19:31.155Z,21.13
2023-05-25T09:25:33.817Z,21.23
2023-05-25T09:31:36.313Z,22.90
2023-05-25T09:37:39.054Z,26.95
2023-05-25T09:43:46.807Z,26.58
2023-05-25T09:49:57.671Z,24.75
2023-05-25T09:56:01.964Z,20.83
2023-05-25T10:02:06.873Z,31.33
2023-05-25T10:08:10.588Z,19.90
2023-05-25T10:14:17.636Z,19.83
2023-05-25T10:20:24.963Z,18.83
2023-05-25T10:26:33.616Z,21.05
2023-05-25T10:32:37.718Z,19.77
2023-05-25T10:38:40.743Z,19.15
2023-05-25T10:44:43.494Z,19.25
2023-05-25T10:50:50.853Z,18.42
2023-05-25T10:57:31.867Z,20.50
2023-05-25T11:03:56.740Z,17.83
2023-05-25T11:09:59.425Z,21.70
2023-05-25T11:16:20.790Z,18.10
2023-05-25T11:22:42.892Z,13.00
2023-05-25T11:28:47.059Z,20.92
2023-05-25T11:34:49.855Z,17.50
2023-05-25T11:40:51.876Z,16.40
2023-05-25T11:46:57.613Z,11.85
2023-05-25T11:52:59.726Z,15.77
2023-05-25T11:59:01.657Z,12.68
2023-05-25T12:05:03.857Z,15.57
2023-05-25T12:11:05.964Z,9.77
2023-05-25T12:17:07.985Z,11.18
2023-05-25T12:23:10.283Z,13.80
2023-05-25T12:29:12.170Z,13.57
2023-05-25T12:35:14.051Z,12.10
2023-05-25T12:41:17.614Z,8.43
2023-05-25T12:47:23.070Z,10.93
2023-05-25T12:53:25.420Z,13.07
2023-05-25T12:59:27.305Z,10.00
2023-05-25T13:05:34.277Z,11.10
2023-05-25T13:11:36.209Z,10.90
2023-05-25T13:17:38.133Z,11.70
2023-05-25T13:23:40.251Z,11.02
2023-05-25T13:29:42.088Z,15.05
2023-05-25T13:35:58.358Z,16.02
2023-05-25T13:42:02.897Z,16.27
2023-05-25T13:48:05.180Z,10.98
2023-05-25T13:54:07.289Z,18.35
2023-05-25T14:00:09.526Z,16.98
2023-05-25T14:06:11.843Z,17.05
2023-05-25T14:12:17.074Z,15.35
2023-05-25T14:18:19.134Z,13.75
2023-05-25T14:24:21.209Z,16.50
2023-05-25T14:30:23.488Z,16.20
2023-05-25T14:36:25.459Z,13.35
2023-05-25T14:42:27.543Z,20.13
2023-05-25T14:48:29.746Z,13.30
2023-05-25T14:54:31.712Z,11.35
2023-05-25T15:00:33.970Z,14.98
2023-05-25T15:06:36.949Z,12.88
2023-05-25T15:12:39.219Z,18.25
2023-05-25T15:18:41.081Z,17.65
2023-05-25T15:24:43.056Z,20.02
2023-05-25T15:30:45.539Z,13.82
2023-05-25T15:36:47.441Z,17.27
2023-05-25T15:42:50.853Z,15.73
2023-05-25T15:48:53.108Z,17.75
2023-05-25T15:54:54.964Z,17.40
2023-05-25T16:00:56.881Z,19.80
2023-05-25T16:07:00.638Z,17.17
2023-05-25T16:13:03.849Z,12.73
2023-05-25T16:19:05.854Z,17.80
2023-05-25T16:25:08.237Z,17.95
2023-05-25T16:31:12.226Z,23.80
2023-05-25T16:37:14.103Z,16.02
2023-05-25T16:43:15.936Z,21.60
2023-05-25T16:49:17.877Z,18.85
2023-05-25T16:55:19.765Z,20.42
2023-05-25T17:01:22.253Z,21.70
2023-05-25T17:07:25.265Z,15.77
2023-05-25T17:13:27.812Z,21.63
2023-05-25T17:19:29.730Z,19.70
2023-05-25T17:25:33.368Z,18.30
2023-05-25T17:31:36.332Z,23.38
2023-05-25T17:37:38.408Z,17.65
2023-05-25T17:43:40.531Z,19.83
2023-05-25T17:49:42.537Z,21.42
2023-05-25T17:55:44.641Z,20.52
2023-05-25T18:01:47.559Z,15.15
2023-05-25T18:07:49.517Z,18.15
2023-05-25T18:13:52.446Z,25.73
2023-05-25T18:19:54.578Z,18.15
2023-05-25T18:25:56.534Z,28.60
2023-05-25T18:31:58.530Z,22.73
2023-05-25T18:38:00.402Z,26.70
2023-05-25T18:44:02.319Z,28.90
2023-05-25T18:50:04.548Z,26.98
2023-05-25T18:56:06.636Z,19.73
2023-05-25T19:02:08.651Z,26.33
2023-05-25T19:08:10.708Z,28.05
2023-05-25T19:14:12.640Z,21.70
2023-05-25T19:20:16.805Z,25.45
2023-05-25T19:26:19.162Z,24.25
2023-05-25T19:32:22.127Z,25.92
2023-05-25T19:38:26.568Z,21.20
2023-05-25T19:44:31.719Z,21.17
2023-05-25T19:50:36.152Z,20.30
2023-05-25T19:56:38.004Z,20.92
2023-05-25T20:02:40.075Z,19.23
2023-05-25T20:08:42.018Z,30.52
2023-05-25T20:14:44.071Z,25.70
2023-05-25T20:20:46.104Z,32.17
2023-05-25T20:26:48.148Z,24.45
2023-05-25T20:32:49.924Z,20.92
2023-05-25T20:38:51.777Z,21.90
2023-05-25T20:44:53.677Z,28.52
2023-05-25T20:50:55.684Z,22.17
2023-05-25T20:56:57.569Z,23.52
2023-05-25T21:02:59.441Z,19.27
2023-05-25T21:09:01.674Z,26.63
2023-05-25T21:15:03.649Z,21.48
2023-05-25T21:21:05.849Z,19.70
2023-05-25T21:27:07.813Z,24.58
2023-05-25T21:33:09.734Z,23.73
2023-05-25T21:39:11.628Z,21.23
2023-05-25T21:45:13.421Z,19.02
2023-05-25T21:51:16.857Z,21.95
2023-05-25T21:57:18.728Z,21.17
2023-05-25T22:03:21.257Z,18.13
2023-05-25T22:09:23.516Z,16.67
2023-05-25T22:15:25.548Z,23.13
2023-05-25T22:21:27.449Z,21.58
2023-05-25T22:27:29.302Z,30.33
2023-05-25T22:33:31.254Z,20.58
2023-05-25T22:39:33.099Z,23.20
2023-05-25T22:45:34.963Z,21.13
2023-05-25T22:51:36.989Z,23.23
2023-05-25T22:57:39.408Z,18.13
2023-05-25T23:03:41.898Z,23.13
2023-05-25T23:09:43.866Z,28.83
2023-05-25T23:15:47.485Z,29.67
2023-05-25T23:21:49.909Z,19.20
2023-05-25T23:27:51.792Z,26.58
2023-05-25T23:33:53.631Z,28.67
2023-05-25T23:39:55.557Z,27.83
2023-05-25T23:45:57.486Z,27.48
2023-05-25T23:51:59.365Z,27.25
2023-05-25T23:58:01.256Z,29.08
